• Join FlightAware (Why Join?)
  • Login
  • US Flag 
Trick or treat! (Boo!!) 
03:11PM EDT


 

Airport Tracker/Info


-or-


 

Live Flight TrackerFlight Track Log ✈ EJA583 ✈ 12-Nov-2013 ✈ 4R3 - KECP

Flight Track Log - Related Links

Times and Time Zones

All times are in EST time to prevent confusion due to time zone crossing. See the EJA583 flight status page for this flight to view local times or setup timezone preferences in your user account.

Time Position Orientation Groundspeed Altitude Reporting Facility
EST Latitude Longitude Course Direction KTS MPH feet Rate Location/Type
03:19PM 31.4736 -87.9408 61° Northeast 237 273 3,400  Level Houston Center
03:20PM 31.3961 -87.9050 158° South 269 310 7,400 3,960 Climbing Houston Center
03:21PM 31.3214 -87.8592 152° Southeast 298 343 11,700 2,640 Climbing Houston Center
03:22PM 31.2333 -87.8425 171° South 339 390 13,000 600 Climbing Houston Center
03:23PM 31.1308 -87.8322 175° South 360 414 13,000  Level Houston Center
03:24PM 31.0289 -87.8225 175° South 365 420 13,000  Level Houston Center
03:25PM 31.2011 -87.3766 61° Northeast  Level Estimated
03:25PM 30.9272 -87.8128 175° South 363 418 13,000  Level Houston Center
03:26PM 30.8278 -87.7981 173° South 361 415 13,000  Level Houston Center
03:28PM 30.7694 -87.6764 119° Southeast 397 457 13,000  Level Houston Center
03:29PM 30.7772 -87.5503 86° East 393 452 13,100  Climbing Houston Center
03:30PM 30.7856 -87.4239 86° East 395 455 13,100 -60 Level Houston Center
03:31PM 30.7928 -87.2644 87° East 377 434 13,000 -60 Descending Jacksonville Center
03:32PM 30.8011 -87.1392 86° East 382 440 13,000  Level Jacksonville Center
03:33PM 30.8094 -87.0114 86° East 382 440 13,000  Level Jacksonville Center
03:34PM 30.8178 -86.8861 86° East 382 440 13,000  Level Jacksonville Center
03:35PM 30.8258 -86.7606 86° East 387 445 13,000 -60 Level Jacksonville Center
03:36PM 30.8236 -86.6178 91° East 387 445 12,900 -420 Descending Jacksonville Center
03:37PM 30.8211 -86.4894 91° East 392 451 12,200 -960 Descending Jacksonville Center
03:38PM 30.8161 -86.3661 93° East 392 451 11,000 -1,260 Descending Jacksonville Center
03:39PM 30.8150 -86.2594 91° East 373 429 9,700 -1,500 Descending Jacksonville Center
03:40PM 30.8133 -86.1581 91° East 328 377 8,100 -1,740 Descending Jacksonville Center
03:41PM 30.7608 -86.0908 132° Southeast 271 312 6,300 -1,200 Descending Jacksonville Center
03:42PM 30.6911 -86.0403 148° Southeast 271 312 5,800 -900 Descending Jacksonville Center
03:43PM 30.6233 -85.9922 149° Southeast 281 323 4,500 -1,260 Descending Jacksonville Center
03:44PM 30.5533 -85.9489 152° Southeast 281 323 3,300 -840 Descending Jacksonville Center
03:45PM 30.4833 -85.9153 158° South 281 323 2,900 -540 Descending Jacksonville Center
03:46PM 30.4153 -85.8817 157° South 271 312 2,300 -600 Descending Jacksonville Center
03:47PM 30.3492 -85.8483 156° South 271 312 1,800 -420 Descending Jacksonville Center
03:48PM 30.2997 -85.8156 150° Southeast 247 284 1,500 -600 Descending Jacksonville Center
03:49PM 30.3153 -85.7775 65° Northeast 134 154 700 -840 Descending Jacksonville Center